Time,TemperatureF,DewpointF,PressureIn,WindDirection,WindDirectionDegrees,WindSpeedMPH,WindSpeedGustMPH,Humidity,HourlyPrecipIn,Conditions,Clouds,dailyrainin,SoftwareType,DateUTC
2015-03-30 00:04:00,37.7,19.7,30.15,SSE,151,0.0,4.0,48,0.00,,,0.00,WUHU216DAVISVP2,2015-03-30 04:04:00,
2015-03-30 00:09:00,37.7,19.7,30.15,SE,130,0.0,3.0,48,0.00,,,0.00,WUHU216DAVISVP2,2015-03-30 04:09:00,
2015-03-30 00:14:00,37.7,19.7,30.15,East,101,0.0,3.0,48,0.00,,,0.00,WUHU216DAVISVP2,2015-03-30 04:14:00,
2015-03-30 00:19:00,37.6,19.1,30.14,ESE,107,0.0,3.0,47,0.00,,,0.00,WUHU216DAVISVP2,2015-03-30 04:19:00,
2015-03-30 00:24:00,37.6,19.6,30.13,East,91,1.0,3.0,48,0.00,,,0.00,WUHU216DAVISVP2,2015-03-30 04:24:00,
2015-03-30 00:29:00,37.6,19.1,30.13,WSW,240,0.0,3.0,47,0.00,,,0.00,WUHU216DAVISVP2,2015-03-30 04:29:00,
2015-03-30 00:34:00,37.6,19.1,30.13,East,96,0.0,3.0,47,0.00,,,0.00,WUHU216DAVISVP2,2015-03-30 04:34:00,
2015-03-30 00:39:00,37.7,18.7,30.12,NE,40,0.0,3.0,46,0.00,,,0.00,WUHU216DAVISVP2,2015-03-30 04:39:00,
2015-03-30 00:44:00,37.8,18.7,30.12,ESE,114,1.0,3.0,46,0.00,,,0.00,WUHU216DAVISVP2,2015-03-30 04:44:00,
2015-03-30 00:49:00,37.9,18.8,30.11,WSW,248,0.0,3.0,46,0.00,,,0.00,WUHU216DAVISVP2,2015-03-30 04:49:00,
2015-03-30 00:54:00,38.0,18.9,30.11,ENE,71,0.0,3.0,46,0.00,,,0.00,WUHU216DAVISVP2,2015-03-30 04:54:00,
2015-03-30 00:59:00,38.2,18.6,30.10,NNW,338,0.0,3.0,45,0.00,,,0.00,WUHU216DAVISVP2,2015-03-30 04:59:00,
2015-03-30 01:04:00,38.3,18.7,30.10,West,268,1.0,3.0,45,0.00,,,0.00,WUHU216DAVISVP2,2015-03-30 05:04:00,
2015-03-30 01:09:00,38.4,18.8,30.09,North,360,1.0,6.0,45,0.00,,,0.00,WUHU216DAVISVP2,2015-03-30 05:09:00,
2015-03-30 01:13:00,38.5,18.9,30.09,North,9,0.0,6.0,45,0.00,,,0.00,WUHU216DAVISVP2,2015-03-30 05:13:00,
2015-03-30 01:18:00,38.7,19.0,30.09,SW,223,1.0,6.0,45,0.00,,,0.00,WUHU216DAVISVP2,2015-03-30 05:18:00,
2015-03-30 01:23:00,38.8,19.1,30.09,South,185,5.0,5.0,45,0.00,,,0.00,WUHU216DAVISVP2,2015-03-30 05:23:00,
2015-03-30 01:28:00,38.9,19.2,30.09,SW,224,0.0,6.0,45,0.00,,,0.00,WUHU216DAVISVP2,2015-03-30 05:28:00,
2015-03-30 01:33:00,39.0,19.3,30.10,SW,223,0.0,6.0,45,0.00,,,0.00,WUHU216DAVISVP2,2015-03-30 05:33:00,
2015-03-30 01:38:00,39.1,19.4,30.09,SW,225,0.0,6.0,45,0.00,,,0.00,WUHU216DAVISVP2,2015-03-30 05:38:00,
2015-03-30 01:43:00,39.2,19.5,30.10,WNW,285,0.0,6.0,45,0.00,,,0.00,WUHU216DAVISVP2,2015-03-30 05:43:00,
2015-03-30 01:48:00,39.4,19.7,30.10,SW,226,1.0,6.0,45,0.00,,,0.00,WUHU216DAVISVP2,2015-03-30 05:48:00,
2015-03-30 01:53:00,39.5,20.3,30.10,WNW,288,2.0,6.0,46,0.00,,,0.00,WUHU216DAVISVP2,2015-03-30 05:53:00,
2015-03-30 01:58:00,39.6,20.4,30.10,West,263,1.0,6.0,46,0.00,,,0.00,WUHU216DAVISVP2,2015-03-30 05:58:00,
2015-03-30 02:03:00,39.8,20.6,30.10,WSW,247,0.0,6.0,46,0.00,,,0.00,WUHU216DAVISVP2,2015-03-30 06:03:00,
2015-03-30 02:08:00,39.8,21.1,30.09,WSW,254,0.0,6.0,47,0.00,,,0.00,WUHU216DAVISVP2,2015-03-30 06:08:00,
2015-03-30 02:13:00,39.8,21.1,30.10,WSW,246,1.0,7.0,47,0.00,,,0.00,WUHU216DAVISVP2,2015-03-30 06:13:00,
2015-03-30 02:18:00,39.8,23.6,30.08,South,186,0.0,8.0,52,0.00,,,0.00,WUHU216DAVISVP2,2015-03-30 06:18:00,
2015-03-30 02:23:00,39.6,24.3,30.08,SW,219,0.0,8.0,54,0.00,,,0.00,WUHU216DAVISVP2,2015-03-30 06:23:00,
2015-03-30 02:28:00,39.3,26.2,30.08,West,267,0.0,8.0,59,0.00,,,0.00,WUHU216DAVISVP2,2015-03-30 06:28:00,
2015-03-30 02:33:00,38.9,27.4,30.07,West,267,0.0,8.0,63,0.00,,,0.00,WUHU216DAVISVP2,2015-03-30 06:33:00,
2015-03-30 02:38:00,38.5,27.8,30.06,West,267,0.0,6.0,65,0.00,,,0.00,WUHU216DAVISVP2,2015-03-30 06:38:00,
2015-03-30 02:43:00,38.3,27.6,30.06,West,267,0.0,6.0,65,0.00,,,0.00,WUHU216DAVISVP2,2015-03-30 06:43:00,
2015-03-30 02:48:00,38.1,27.4,30.06,West,267,0.0,2.0,65,0.00,,,0.00,WUHU216DAVISVP2,2015-03-30 06:48:00,
2015-03-30 02:53:00,38.1,27.8,30.05,West,267,0.0,2.0,66,0.00,,,0.00,WUHU216DAVISVP2,2015-03-30 06:53:00,
2015-03-30 02:58:00,38.1,27.8,30.04,East,98,0.0,4.0,66,0.00,,,0.00,WUHU216DAVISVP2,2015-03-30 06:58:00,
2015-03-30 03:03:00,38.1,28.2,30.04,East,100,0.0,4.0,67,0.00,,,0.00,WUHU216DAVISVP2,2015-03-30 07:03:00,
2015-03-30 03:08:00,38.0,28.1,30.04,SE,144,0.0,4.0,67,0.00,,,0.00,WUHU216DAVISVP2,2015-03-30 07:08:00,
2015-03-30 03:13:00,38.1,28.5,30.04,SE,144,0.0,4.0,68,0.00,,,0.00,WUHU216DAVISVP2,2015-03-30 07:13:00,
2015-03-30 03:18:00,38.0,28.5,30.04,SE,144,0.0,3.0,68,0.00,,,0.00,WUHU216DAVISVP2,2015-03-30 07:18:00,
2015-03-30 03:23:00,38.0,28.1,30.04,SE,144,0.0,3.0,67,0.00,,,0.00,WUHU216DAVISVP2,2015-03-30 07:23:00,